createdAt,value
2022-10-26T00:00:24.383Z,4.20
2022-10-26T00:02:52.156Z,5.13
2022-10-26T00:05:19.990Z,4.87
2022-10-26T00:07:47.476Z,5.27
2022-10-26T00:10:15.125Z,4.93
2022-10-26T00:12:42.686Z,4.60
2022-10-26T00:15:10.379Z,4.77
2022-10-26T00:17:37.882Z,4.47
2022-10-26T00:20:05.517Z,4.63
2022-10-26T00:22:32.946Z,4.27
2022-10-26T00:25:00.380Z,4.50
2022-10-26T00:27:27.829Z,4.53
2022-10-26T00:29:55.305Z,4.57
2022-10-26T00:32:22.718Z,4.70
2022-10-26T00:34:50.182Z,3.97
2022-10-26T00:37:17.611Z,4.17
2022-10-26T00:39:45.065Z,4.10
2022-10-26T00:42:18.637Z,3.40
2022-10-26T00:44:49.167Z,3.57
2022-10-26T00:47:23.783Z,3.83
2022-10-26T00:49:52.358Z,3.63
2022-10-26T00:52:20.985Z,3.70
2022-10-26T00:54:48.626Z,3.47
2022-10-26T00:57:16.610Z,3.23
2022-10-26T00:59:44.724Z,3.30
2022-10-26T01:02:12.634Z,3.40
2022-10-26T01:04:40.126Z,3.67
2022-10-26T01:07:08.956Z,3.57
2022-10-26T01:09:36.903Z,3.10
2022-10-26T01:12:04.489Z,3.13
2022-10-26T01:14:32.707Z,3.53
2022-10-26T01:17:18.819Z,3.13
2022-10-26T01:19:49.402Z,3.27
2022-10-26T01:22:21.204Z,2.87
2022-10-26T01:25:00.816Z,3.67
2022-10-26T01:27:34.807Z,3.77
2022-10-26T01:30:20.410Z,3.90
2022-10-26T01:33:06.810Z,3.47
2022-10-26T01:35:37.697Z,3.50
2022-10-26T01:38:07.352Z,3.23
2022-10-26T01:40:36.934Z,3.60
2022-10-26T01:43:06.456Z,3.33
2022-10-26T01:45:34.628Z,2.87
2022-10-26T01:48:02.869Z,3.57
2022-10-26T01:50:31.742Z,3.00
2022-10-26T01:52:59.214Z,3.37
2022-10-26T01:55:39.169Z,2.70
2022-10-26T01:58:13.837Z,3.07
2022-10-26T02:00:43.423Z,3.10
2022-10-26T02:03:16.793Z,2.73
2022-10-26T02:05:56.553Z,2.87
2022-10-26T02:08:28.138Z,3.27
2022-10-26T02:10:55.649Z,2.53
2022-10-26T02:13:39.414Z,2.87
2022-10-26T02:16:09.998Z,2.40
2022-10-26T02:18:55.818Z,2.47
2022-10-26T02:21:26.382Z,2.17
2022-10-26T02:23:55.580Z,2.53
2022-10-26T02:26:24.925Z,2.30
2022-10-26T02:28:55.383Z,2.30
2022-10-26T02:31:23.586Z,2.17
2022-10-26T02:33:52.201Z,2.17
2022-10-26T02:36:25.350Z,2.17
2022-10-26T02:38:53.773Z,2.10
2022-10-26T02:41:22.471Z,2.97
2022-10-26T02:43:54.901Z,2.20
2022-10-26T02:46:23.876Z,2.50
2022-10-26T02:48:51.289Z,2.17
2022-10-26T02:51:28.862Z,2.37
2022-10-26T02:54:25.598Z,2.17
2022-10-26T02:56:55.654Z,2.60
2022-10-26T02:59:24.472Z,2.53
2022-10-26T03:01:52.565Z,2.43
2022-10-26T03:04:20.140Z,2.20
2022-10-26T03:06:54.230Z,2.30
2022-10-26T03:09:23.540Z,2.20
2022-10-26T03:11:53.391Z,2.47
2022-10-26T03:14:20.928Z,2.30
2022-10-26T03:16:48.507Z,2.07
2022-10-26T03:19:16.165Z,2.30
2022-10-26T03:21:43.616Z,2.30
2022-10-26T03:24:11.089Z,2.40
2022-10-26T03:26:38.618Z,2.40
2022-10-26T03:29:06.110Z,2.77
2022-10-26T03:31:33.590Z,2.33
2022-10-26T03:34:01.026Z,2.87
2022-10-26T03:36:28.461Z,2.50
2022-10-26T03:38:55.903Z,2.70
2022-10-26T03:41:23.424Z,1.93
2022-10-26T03:43:50.862Z,2.00
2022-10-26T03:46:18.334Z,2.30
2022-10-26T03:48:45.735Z,2.33
2022-10-26T03:51:13.162Z,2.37
2022-10-26T03:53:40.583Z,2.50
2022-10-26T03:56:08.101Z,2.17
2022-10-26T03:58:35.511Z,2.13
2022-10-26T04:01:03.066Z,2.10
2022-10-26T04:03:30.581Z,2.20
2022-10-26T04:06:00.779Z,2.00
2022-10-26T04:08:28.251Z,2.13
2022-10-26T04:10:55.688Z,2.23
2022-10-26T04:13:23.195Z,2.90
2022-10-26T04:15:50.639Z,2.10
2022-10-26T04:18:18.162Z,2.20
2022-10-26T04:20:45.663Z,2.73
2022-10-26T04:23:14.744Z,2.37
2022-10-26T04:25:42.555Z,2.13
2022-10-26T04:28:10.977Z,2.30
2022-10-26T04:30:38.835Z,2.30
2022-10-26T04:33:06.929Z,2.50
2022-10-26T04:35:34.389Z,2.63
2022-10-26T04:38:02.705Z,2.60
2022-10-26T04:40:30.668Z,2.47
2022-10-26T04:42:58.378Z,3.00
2022-10-26T04:45:26.019Z,2.63
2022-10-26T04:48:04.486Z,2.70
2022-10-26T04:50:32.294Z,3.10
2022-10-26T04:52:59.825Z,2.87
2022-10-26T04:55:27.327Z,3.07
2022-10-26T04:57:57.255Z,3.30
2022-10-26T05:00:27.841Z,2.93
2022-10-26T05:03:05.310Z,3.10
2022-10-26T05:05:33.698Z,2.70
2022-10-26T05:08:01.350Z,2.67
2022-10-26T05:10:28.861Z,2.80
2022-10-26T05:12:56.918Z,3.40
2022-10-26T05:15:24.726Z,3.20
2022-10-26T05:17:59.002Z,3.10
2022-10-26T05:20:27.072Z,2.67
2022-10-26T05:22:54.514Z,2.73
2022-10-26T05:25:22.014Z,2.87
2022-10-26T05:27:49.460Z,2.77
2022-10-26T05:30:17.029Z,2.77
2022-10-26T05:32:44.457Z,2.10
2022-10-26T05:35:11.942Z,2.00
2022-10-26T05:37:39.413Z,1.93
2022-10-26T05:40:07.274Z,1.90
2022-10-26T05:42:34.746Z,2.10
2022-10-26T05:45:02.194Z,1.73
2022-10-26T05:47:29.700Z,2.10
2022-10-26T05:49:57.166Z,2.10
2022-10-26T05:52:24.634Z,1.60
2022-10-26T05:54:52.237Z,1.90
2022-10-26T05:57:19.771Z,1.73
2022-10-26T05:59:47.292Z,1.73
2022-10-26T06:02:19.703Z,1.73
2022-10-26T06:04:47.571Z,2.20
2022-10-26T06:07:16.289Z,2.27
2022-10-26T06:09:44.020Z,2.20
2022-10-26T06:12:13.548Z,2.47
2022-10-26T06:14:43.128Z,1.50
2022-10-26T06:17:16.583Z,1.60
2022-10-26T06:20:03.071Z,1.90
2022-10-26T06:22:49.668Z,1.50
2022-10-26T06:25:23.102Z,1.80
2022-10-26T06:28:09.466Z,2.13
2022-10-26T06:30:36.950Z,1.73
2022-10-26T06:33:06.346Z,2.20
2022-10-26T06:35:48.459Z,2.27
2022-10-26T06:38:18.595Z,1.63
2022-10-26T06:40:48.859Z,2.13
2022-10-26T06:43:35.934Z,1.70
2022-10-26T06:46:06.521Z,2.47
2022-10-26T06:48:37.615Z,1.97
2022-10-26T06:51:05.193Z,2.13
2022-10-26T06:53:42.582Z,2.30
2022-10-26T06:56:12.122Z,2.50
2022-10-26T06:58:41.172Z,1.93
2022-10-26T07:01:11.588Z,2.10
2022-10-26T07:03:39.312Z,2.27
2022-10-26T07:06:07.028Z,2.43
2022-10-26T07:08:34.776Z,2.27
2022-10-26T07:11:02.241Z,2.50
2022-10-26T07:13:29.725Z,2.10
2022-10-26T07:15:57.164Z,2.23
2022-10-26T07:18:24.657Z,2.23
2022-10-26T07:20:52.114Z,2.30
2022-10-26T07:23:19.665Z,2.80
2022-10-26T07:25:47.138Z,2.40
2022-10-26T07:28:14.631Z,2.60
2022-10-26T07:30:42.052Z,2.60
2022-10-26T07:33:13.769Z,2.40
2022-10-26T07:35:41.311Z,2.10
2022-10-26T07:38:09.071Z,2.03
2022-10-26T07:40:37.096Z,2.17
2022-10-26T07:43:04.520Z,2.27
2022-10-26T07:45:32.397Z,2.00
2022-10-26T07:47:59.877Z,2.50
2022-10-26T07:50:27.434Z,2.17
2022-10-26T07:52:54.869Z,2.13
2022-10-26T07:55:22.305Z,2.57
2022-10-26T07:57:51.415Z,1.73
2022-10-26T08:00:22.207Z,2.07
2022-10-26T08:02:49.732Z,2.03
2022-10-26T08:05:17.368Z,2.27
2022-10-26T08:07:45.656Z,2.00
2022-10-26T08:10:14.079Z,2.50
2022-10-26T08:12:42.201Z,2.47
2022-10-26T08:15:09.915Z,2.07
2022-10-26T08:17:37.396Z,2.27
2022-10-26T08:20:05.041Z,2.10
2022-10-26T08:22:32.468Z,2.20
2022-10-26T08:24:59.969Z,2.40
2022-10-26T08:27:27.481Z,2.00
2022-10-26T08:29:54.961Z,2.30
2022-10-26T08:32:22.438Z,2.60
2022-10-26T08:34:50.049Z,2.40
2022-10-26T08:37:17.528Z,2.40
2022-10-26T08:39:45.006Z,2.73
2022-10-26T08:42:17.828Z,2.50
2022-10-26T08:44:50.266Z,2.47
2022-10-26T08:47:21.936Z,2.53
2022-10-26T08:49:53.173Z,2.00
2022-10-26T08:52:23.826Z,2.37
2022-10-26T08:54:56.124Z,2.37
2022-10-26T08:57:28.225Z,2.70
2022-10-26T08:59:55.670Z,2.70
2022-10-26T09:02:23.126Z,2.40
2022-10-26T09:04:50.546Z,2.93
2022-10-26T09:07:26.898Z,2.50
2022-10-26T09:10:06.353Z,2.57
2022-10-26T09:12:39.874Z,2.77
2022-10-26T09:15:26.063Z,2.37
2022-10-26T09:18:22.604Z,2.10
2022-10-26T09:21:06.899Z,2.50
2022-10-26T09:23:43.703Z,2.43
2022-10-26T09:26:31.380Z,2.53
2022-10-26T09:29:02.183Z,2.40
2022-10-26T09:31:30.863Z,3.40
2022-10-26T09:34:00.069Z,2.70
2022-10-26T09:36:27.907Z,2.60
2022-10-26T09:39:09.683Z,2.93
2022-10-26T09:41:42.988Z,2.73
2022-10-26T09:44:13.487Z,2.60
2022-10-26T09:46:56.310Z,2.30
2022-10-26T09:49:26.831Z,2.37
2022-10-26T09:51:54.291Z,2.70
2022-10-26T09:54:22.118Z,2.70
2022-10-26T09:56:52.228Z,1.90
2022-10-26T09:59:22.155Z,2.50
2022-10-26T10:01:49.687Z,2.50
2022-10-26T10:04:19.703Z,2.00
2022-10-26T10:06:48.585Z,1.97
2022-10-26T10:09:16.020Z,2.37
2022-10-26T10:11:43.463Z,2.40
2022-10-26T10:14:15.206Z,1.90
2022-10-26T10:16:49.998Z,1.80
2022-10-26T10:19:25.500Z,1.80
2022-10-26T10:21:55.378Z,2.10
2022-10-26T10:24:25.654Z,2.47
2022-10-26T10:27:00.415Z,2.00
2022-10-26T10:29:29.148Z,2.17
2022-10-26T10:32:00.782Z,1.87
2022-10-26T10:34:30.519Z,2.13
2022-10-26T10:36:58.277Z,2.60
2022-10-26T10:39:34.390Z,2.03
2022-10-26T10:42:02.438Z,2.10
2022-10-26T10:44:30.362Z,2.00
2022-10-26T10:47:01.961Z,1.97
2022-10-26T10:49:30.636Z,2.10
2022-10-26T10:51:58.570Z,2.63
2022-10-26T10:54:36.572Z,2.57
2022-10-26T10:57:09.411Z,1.90
2022-10-26T10:59:36.876Z,2.03
2022-10-26T11:02:07.544Z,1.80
2022-10-26T11:04:57.901Z,2.13
2022-10-26T11:07:26.626Z,1.73
2022-10-26T11:12:32.240Z,1.97
2022-10-26T11:15:06.298Z,2.10
2022-10-26T11:17:54.154Z,1.63
2022-10-26T11:20:22.947Z,2.00
2022-10-26T11:22:53.787Z,1.33
2022-10-26T11:25:41.762Z,1.37
2022-10-26T11:28:14.990Z,1.60
2022-10-26T11:30:46.882Z,1.80
2022-10-26T11:33:14.339Z,1.60
2022-10-26T11:35:41.829Z,1.77
2022-10-26T11:38:33.117Z,1.40
2022-10-26T11:41:30.387Z,1.90
2022-10-26T11:44:06.336Z,1.37
2022-10-26T11:46:49.086Z,1.50
2022-10-26T11:49:34.249Z,1.20
2022-10-26T11:52:04.556Z,1.70
2022-10-26T11:54:35.131Z,1.20
2022-10-26T11:57:04.290Z,1.50
2022-10-26T11:59:33.674Z,1.53
2022-10-26T12:02:05.804Z,1.77
2022-10-26T12:04:36.100Z,1.40
2022-10-26T12:07:05.227Z,1.33
2022-10-26T12:09:35.693Z,1.40
2022-10-26T12:12:12.700Z,1.50
2022-10-26T12:14:43.080Z,1.13
2022-10-26T12:17:14.001Z,1.23
2022-10-26T12:19:41.525Z,1.17
2022-10-26T12:22:17.053Z,1.10
2022-10-26T12:25:04.923Z,1.13
2022-10-26T12:27:49.210Z,1.50
2022-10-26T12:30:19.845Z,1.40
2022-10-26T12:32:47.433Z,1.60
2022-10-26T12:35:33.489Z,1.30
2022-10-26T12:38:01.563Z,1.30
2022-10-26T12:40:39.330Z,1.10
2022-10-26T12:43:16.113Z,1.20
2022-10-26T12:45:44.245Z,1.37
2022-10-26T12:48:39.187Z,1.30
2022-10-26T12:51:22.618Z,1.37
2022-10-26T12:53:54.997Z,1.43
2022-10-26T12:56:27.575Z,1.50
2022-10-26T12:59:18.030Z,1.43
2022-10-26T13:01:45.528Z,1.47
2022-10-26T13:04:13.052Z,1.63
2022-10-26T13:06:54.521Z,1.30
2022-10-26T13:09:22.962Z,1.27
2022-10-26T13:11:53.389Z,1.20
2022-10-26T13:14:36.777Z,1.37
2022-10-26T13:17:06.147Z,1.43
2022-10-26T13:19:43.865Z,1.80
2022-10-26T13:22:21.195Z,1.13
2022-10-26T13:24:56.770Z,1.70
2022-10-26T13:27:39.826Z,1.13
2022-10-26T13:30:10.345Z,0.97
2022-10-26T13:32:41.373Z,1.10
2022-10-26T13:35:15.850Z,1.07
2022-10-26T13:37:47.742Z,1.07
2022-10-26T13:40:18.403Z,1.03
2022-10-26T13:42:47.322Z,1.00
2022-10-26T13:45:18.234Z,0.97
2022-10-26T13:48:04.256Z,1.20
2022-10-26T13:50:38.593Z,1.03
2022-10-26T13:53:13.974Z,1.10
2022-10-26T13:55:54.768Z,1.00
2022-10-26T13:58:31.515Z,1.00
2022-10-26T14:01:02.974Z,1.20
2022-10-26T14:03:30.526Z,1.10
2022-10-26T14:05:58.298Z,1.07
2022-10-26T14:08:25.851Z,0.90
2022-10-26T14:10:57.796Z,1.20
2022-10-26T14:13:26.280Z,1.17
2022-10-26T14:15:54.797Z,1.10
2022-10-26T14:18:24.431Z,1.20
2022-10-26T14:21:02.316Z,1.43
2022-10-26T14:23:33.315Z,1.20
2022-10-26T14:26:00.875Z,1.50
2022-10-26T14:28:29.767Z,1.10
2022-10-26T14:31:15.268Z,1.20
2022-10-26T14:33:45.617Z,1.17
2022-10-26T14:36:13.466Z,0.87
2022-10-26T14:38:45.525Z,1.07
2022-10-26T14:41:15.001Z,1.00
2022-10-26T14:43:43.126Z,1.03
2022-10-26T14:46:15.297Z,0.83
2022-10-26T14:48:50.547Z,1.67
2022-10-26T14:51:19.036Z,1.43
2022-10-26T14:53:51.510Z,1.20
2022-10-26T14:56:22.110Z,1.17
2022-10-26T14:58:49.806Z,1.20
2022-10-26T15:01:17.389Z,1.10
2022-10-26T15:03:45.373Z,1.20
2022-10-26T15:06:32.277Z,1.37
2022-10-26T15:09:00.885Z,1.43
2022-10-26T15:11:29.101Z,1.50
2022-10-26T15:13:57.481Z,1.50
2022-10-26T15:16:26.226Z,1.40
2022-10-26T15:18:55.817Z,1.07
2022-10-26T15:21:25.354Z,1.40
2022-10-26T15:23:53.870Z,1.20
2022-10-26T15:26:21.411Z,1.57
2022-10-26T15:31:34.263Z,1.40
2022-10-26T15:34:01.719Z,1.20
2022-10-26T15:36:29.977Z,1.30
2022-10-26T15:38:58.948Z,1.40
2022-10-26T15:41:26.392Z,1.40
2022-10-26T15:43:54.955Z,1.53
2022-10-26T15:46:23.267Z,1.70
2022-10-26T15:48:55.321Z,1.40
2022-10-26T15:51:22.876Z,1.13
2022-10-26T15:53:50.396Z,1.60
2022-10-26T15:56:19.239Z,1.53
2022-10-26T15:58:47.038Z,1.20
2022-10-26T16:01:16.458Z,1.57
2022-10-26T16:03:44.102Z,1.70
2022-10-26T16:06:18.912Z,1.43
2022-10-26T16:08:50.585Z,1.33
2022-10-26T16:11:18.339Z,1.23
2022-10-26T16:13:51.536Z,1.50
2022-10-26T16:16:22.620Z,1.50
2022-10-26T16:19:06.154Z,1.33
2022-10-26T16:21:39.654Z,1.00
2022-10-26T16:24:07.250Z,1.50
2022-10-26T16:26:34.791Z,1.40
2022-10-26T16:29:02.306Z,1.30
2022-10-26T16:31:29.992Z,1.30
2022-10-26T16:34:00.338Z,1.40
2022-10-26T16:36:31.860Z,1.00
2022-10-26T16:38:59.355Z,1.50
2022-10-26T16:41:26.853Z,1.40
2022-10-26T16:43:56.504Z,1.53
2022-10-26T16:46:24.126Z,1.40
2022-10-26T16:48:53.006Z,1.60
2022-10-26T16:51:23.594Z,1.37
2022-10-26T16:53:52.586Z,1.37
2022-10-26T16:56:21.149Z,1.23
2022-10-26T16:58:48.856Z,1.40
2022-10-26T17:01:17.176Z,1.30
2022-10-26T17:03:48.482Z,1.23
2022-10-26T17:06:16.194Z,1.20
2022-10-26T17:08:43.956Z,1.13
2022-10-26T17:11:13.023Z,1.30
2022-10-26T17:13:40.881Z,1.70
2022-10-26T17:16:09.506Z,1.53
2022-10-26T17:18:37.136Z,1.60
2022-10-26T17:21:04.767Z,1.70
2022-10-26T17:23:32.320Z,1.40
2022-10-26T17:26:03.656Z,1.37
2022-10-26T17:28:31.709Z,1.67
2022-10-26T17:31:12.784Z,1.70
2022-10-26T17:33:41.148Z,1.40
2022-10-26T17:36:08.936Z,1.50
2022-10-26T17:38:37.758Z,1.80
2022-10-26T17:41:06.662Z,1.60
2022-10-26T17:43:34.924Z,1.67
2022-10-26T17:46:03.273Z,2.00
2022-10-26T17:48:31.318Z,1.60
2022-10-26T17:50:59.742Z,2.03
2022-10-26T17:53:27.565Z,1.53
2022-10-26T17:56:15.534Z,1.53
2022-10-26T17:58:43.102Z,1.50
2022-10-26T18:01:12.173Z,1.80
2022-10-26T18:03:40.116Z,1.43
2022-10-26T18:06:07.787Z,1.40
2022-10-26T18:08:35.762Z,1.77
2022-10-26T18:11:03.870Z,1.60
2022-10-26T18:13:32.398Z,1.87
2022-10-26T18:16:03.425Z,1.57
2022-10-26T18:18:30.851Z,1.43
2022-10-26T18:21:05.383Z,2.00
2022-10-26T18:23:32.874Z,1.70
2022-10-26T18:26:11.132Z,1.70
2022-10-26T18:28:41.870Z,1.80
2022-10-26T18:31:10.290Z,2.07
2022-10-26T18:33:38.212Z,1.70
2022-10-26T18:36:09.918Z,1.40
2022-10-26T18:38:37.882Z,1.93
2022-10-26T18:41:05.416Z,1.73
2022-10-26T18:43:33.202Z,1.97
2022-10-26T18:46:07.843Z,2.40
2022-10-26T18:48:35.722Z,2.37
2022-10-26T18:51:04.045Z,2.40
2022-10-26T18:53:35.064Z,2.20
2022-10-26T18:56:03.918Z,2.20
2022-10-26T18:58:35.751Z,2.13
2022-10-26T19:01:06.508Z,2.03
2022-10-26T19:03:34.166Z,3.03
2022-10-26T19:06:28.005Z,2.70
2022-10-26T19:08:55.837Z,2.60
2022-10-26T19:11:24.412Z,2.20
2022-10-26T19:13:52.058Z,2.67
2022-10-26T19:16:40.611Z,2.70
2022-10-26T19:19:09.051Z,2.93
2022-10-26T19:21:36.641Z,3.17
2022-10-26T19:24:04.325Z,3.00
2022-10-26T19:26:34.674Z,3.13
2022-10-26T19:29:04.863Z,2.50
2022-10-26T19:31:32.519Z,3.07
2022-10-26T19:34:00.528Z,2.87
2022-10-26T19:36:28.811Z,2.63
2022-10-26T19:38:56.813Z,3.10
2022-10-26T19:41:24.975Z,2.90
2022-10-26T19:43:53.670Z,3.30
2022-10-26T19:46:22.764Z,2.60
2022-10-26T19:48:51.323Z,3.00
2022-10-26T19:51:19.091Z,3.23
2022-10-26T19:53:47.064Z,2.93
2022-10-26T19:56:15.091Z,2.90
2022-10-26T19:58:44.795Z,2.90
2022-10-26T20:01:14.090Z,2.50
2022-10-26T20:03:42.055Z,2.63
2022-10-26T20:06:11.103Z,2.73
2022-10-26T20:08:39.211Z,2.37
2022-10-26T20:11:10.185Z,2.83
2022-10-26T20:13:41.343Z,2.73
2022-10-26T20:16:09.297Z,2.70
2022-10-26T20:18:36.807Z,2.70
2022-10-26T20:21:11.234Z,2.67
2022-10-26T20:23:38.765Z,2.80
2022-10-26T20:28:38.775Z,2.93
2022-10-26T20:31:06.421Z,2.30
2022-10-26T20:33:33.932Z,2.50
2022-10-26T20:36:01.438Z,2.17
2022-10-26T20:38:29.238Z,2.47
2022-10-26T20:40:57.930Z,2.57
2022-10-26T20:43:26.383Z,2.80
2022-10-26T20:45:54.185Z,2.80
2022-10-26T20:48:27.944Z,2.77
2022-10-26T20:50:57.861Z,2.50
2022-10-26T20:53:31.721Z,2.97
2022-10-26T20:56:00.742Z,2.87
2022-10-26T20:58:31.255Z,2.60
2022-10-26T21:01:03.062Z,2.80
2022-10-26T21:03:31.126Z,2.90
2022-10-26T21:05:58.666Z,3.30
2022-10-26T21:08:26.129Z,3.30
2022-10-26T21:10:53.820Z,3.43
2022-10-26T21:13:21.321Z,3.20
2022-10-26T21:15:48.820Z,3.60
2022-10-26T21:18:16.348Z,4.33
2022-10-26T21:20:43.866Z,3.90
2022-10-26T21:23:11.338Z,3.77
2022-10-26T21:25:38.797Z,3.67
2022-10-26T21:28:06.396Z,3.60
2022-10-26T21:30:34.092Z,3.30
2022-10-26T21:33:01.583Z,3.57
2022-10-26T21:35:28.985Z,3.80
2022-10-26T21:37:56.413Z,4.03
2022-10-26T21:40:23.980Z,3.73
2022-10-26T21:42:52.286Z,3.73
2022-10-26T21:45:20.111Z,3.73
2022-10-26T21:47:51.315Z,3.00
2022-10-26T21:50:19.551Z,3.73
2022-10-26T21:52:46.997Z,3.40
2022-10-26T21:55:14.531Z,3.33
2022-10-26T21:57:41.940Z,3.50
2022-10-26T22:00:09.748Z,3.17
2022-10-26T22:02:37.186Z,2.90
2022-10-26T22:05:04.805Z,3.47
2022-10-26T22:07:32.247Z,2.90
2022-10-26T22:10:10.266Z,3.50
2022-10-26T22:12:37.977Z,3.30
2022-10-26T22:15:05.612Z,3.37
2022-10-26T22:17:33.067Z,3.50
2022-10-26T22:20:00.495Z,3.20
2022-10-26T22:22:27.890Z,3.10
2022-10-26T22:24:55.343Z,3.27
2022-10-26T22:27:22.773Z,3.47
2022-10-26T22:29:50.280Z,3.50
2022-10-26T22:32:17.739Z,3.30
2022-10-26T22:34:45.191Z,3.23
2022-10-26T22:37:12.836Z,3.67
2022-10-26T22:39:40.337Z,3.47
2022-10-26T22:42:07.866Z,3.03
2022-10-26T22:44:35.359Z,3.70
2022-10-26T22:47:02.808Z,3.40
2022-10-26T22:49:30.218Z,3.47
2022-10-26T22:51:57.644Z,3.30
2022-10-26T22:54:25.068Z,3.47
2022-10-26T22:56:52.497Z,2.93
2022-10-26T22:59:19.953Z,2.77
2022-10-26T23:01:47.665Z,3.17
2022-10-26T23:04:15.191Z,2.67
2022-10-26T23:06:42.871Z,2.70
2022-10-26T23:09:10.290Z,3.00
2022-10-26T23:11:37.831Z,2.73
2022-10-26T23:14:05.282Z,2.93
2022-10-26T23:16:32.720Z,3.23
2022-10-26T23:19:00.208Z,3.20
2022-10-26T23:21:28.298Z,3.40
2022-10-26T23:23:56.097Z,2.60
2022-10-26T23:26:23.590Z,3.40
2022-10-26T23:28:51.131Z,3.67
2022-10-26T23:31:20.011Z,2.87
2022-10-26T23:33:47.459Z,3.60
2022-10-26T23:36:14.885Z,3.37
2022-10-26T23:38:42.389Z,3.93
2022-10-26T23:41:12.771Z,3.10
2022-10-26T23:43:41.067Z,3.10
2022-10-26T23:46:08.553Z,3.80
2022-10-26T23:48:36.000Z,3.13
2022-10-26T23:51:03.806Z,3.33
2022-10-26T23:53:31.311Z,3.67
2022-10-26T23:55:58.737Z,3.63
2022-10-26T23:58:26.254Z,4.00
